Wharton, TX

11:13 AM CST on February 11, 2016 (GMT -0600)
Wharton Regional | | Change Station
CLOSE
Current Station
Airport
Location: Wharton,
Elevation: 102 ft
Nearby Weather Stations

Elev 102 ft 29.25 °N, 96.15 °W | Updated 18 minutes ago

Clear
Clear
70 °F
Feels Like 70 °F
N
22
Wind Variable Wind from SSW
Gusts 29 mph

Today
High -- | Low -- °F
--% Chance of Precip.
Yesterday
High -- | Low -- °F
Precip. -- in
Pressure 30.22 in
Visibility 10.0 miles
Clouds Clear
Dew Point 50 °F
Humidity 48%
Rainfall 0.00 in
Snow Depth Not available.
7:06 AM 6:10 PM
Waxing Crescent, 13% visible
METAR KARM 111655Z AUTO 21019G25KT 10SM CLR 21/10 A3022 RMK AO2 T02130100
Pressure 30.22 in
Visibility 10.0 miles
Clouds Clear
Dew Point 50 °F
Humidity 48%
Rainfall 0.00 in
Snow Depth Not available.
7:06 AM 6:10 PM
Waxing Crescent, 13% visible
METAR KARM 111655Z AUTO 21019G25KT 10SM CLR 21/10 A3022 RMK AO2 T02130100

10-Day Weather Forecast

Almanac

Astronomy

Feb. 11, 2016 Rise Set
Actual Time
Civil Twilight
Nautical Twilight
Astronomical Twilight
Moon
Length of Visible Light
Length of Day
Tomorrow will be .
, % of the Moon is Illuminated

Today's Extremes

State Highs State Lows

Community

WunderPhotos

Upload Photos

1,892,104 photos uploaded!

WunderBlog® & News

Nearby

Air Quality

  Air Quality AQ Index Pollutant
Not available.

Snow Depth

Station Depth Elevation

Earthquake Activity

City Distance Mag. Time & Date
Minimum magnitude displayed is 2.5.

Coastal Water Temperatures

Place Temperature

Stations

Nearby Weather Stations

Station Location Temp. Windchill Dew Point Humidity Wind Precip. Elev Updated Type
                   

Watches & Warnings

There are currently no watches in effect.